Saturday, April 25, 2015, 8:25 AM EDT

KSHD, Staunton / Shenandoah

Location: Weyers Cave, VA, United States Lat: 38.267
Local Time: 8:25 AM EDT (12:25 GMT) Lon: -78.9
Time Zone: US/Eastern Elev: 1200 ft

Show me the last for .
Show Decoded

2015-04-25 07:55 METAR KSHD 251155Z AUTO 03003KT 10SM OVC090 06/02 A2996 RMK AO2 T00610016 10062
                 20030 =
2015-04-25 07:35 METAR KSHD 251135Z AUTO 00000KT 10SM SCT100 06/01 A2996 RMK AO2 T00610012 =
2015-04-25 07:15 METAR KSHD 251115Z AUTO 06003KT 10SM SCT090 06/02 A2995 RMK AO2 T00560017 =
2015-04-25 06:55 METAR KSHD 251055Z AUTO 04004KT 10SM OVC090 06/02 A2996 RMK AO2 T00550019 =
2015-04-25 06:35 METAR KSHD 251035Z AUTO 00000KT 10SM OVC090 06/02 A2997 RMK AO2 T00550016 =
2015-04-25 06:15 METAR KSHD 251015Z AUTO 00000KT 10SM OVC090 05/01 A2996 RMK AO2 T00540010 =
2015-04-25 05:55 METAR KSHD 250955Z AUTO 00000KT 10SM OVC080 06/01 A2996 RMK AO2 T00550008 =
2015-04-25 05:35 METAR KSHD 250935Z AUTO 00000KT 10SM OVC080 05/01 A2996 RMK AO2 T00500011 =
2015-04-25 05:15 METAR KSHD 250915Z AUTO 00000KT 10SM OVC090 05/01 A2995 RMK AO2 T00500014 =
2015-04-25 04:35 METAR KSHD 250835Z AUTO 00000KT 10SM OVC100 05/00 A2995 RMK AO2 T00501001 =
2015-04-25 04:15 METAR KSHD 250815Z AUTO 00000KT 10SM BKN100 05/00 A2995 RMK AO2 T00461002 =
2015-04-25 03:55 METAR KSHD 250755Z AUTO 02005KT 10SM CLR 04/00 A2995 RMK AO2 T00371001 =
2015-04-25 03:35 METAR KSHD 250735Z AUTO 02005KT 10SM CLR 04/00 A2995 RMK AO2 T00371001 =
2015-04-25 03:15 METAR KSHD 250715Z AUTO 00000KT 10SM CLR 04/M01 A2997 RMK AO2 T00401010 =
2015-04-25 02:55 METAR KSHD 250655Z AUTO 00000KT 10SM CLR 04/M01 A2996 RMK AO2 T00411010 =
2015-04-25 02:35 METAR KSHD 250635Z AUTO 00000KT 10SM SCT100 03/M01 A2998 RMK AO2 T00301006 =
2015-04-25 02:15 METAR KSHD 250615Z AUTO 00000KT 10SM BKN100 04/M01 A2997 RMK AO2 T00411010 =
2015-04-25 01:55 METAR KSHD 250555Z AUTO 00000KT 10SM SCT100 04/M01 A2997 RMK AO2 T00431013 10132
                 20042 401740006 =
2015-04-25 01:35 METAR KSHD 250535Z AUTO 00000KT 10SM BKN100 06/M02 A2998 RMK AO2 T00571021 =
2015-04-25 01:15 METAR KSHD 250515Z AUTO 00000KT 10SM BKN100 05/M02 A2998 RMK AO2 T00461017 =
2015-04-25 00:55 METAR KSHD 250455Z AUTO 00000KT 10SM CLR 08/M05 A2998 RMK AO2 T00831053 =
2015-04-25 00:35 METAR KSHD 250435Z AUTO 00000KT 10SM CLR 05/M02 A2998 RMK AO2 T00521024 =
2015-04-25 00:15 METAR KSHD 250415Z AUTO 00000KT 10SM CLR 06/M03 A2998 RMK AO2 T00621028 =
2015-04-24 23:55 METAR KSHD 250355Z AUTO 00000KT 10SM CLR 06/M02 A2997 RMK AO2 T00611024 =
2015-04-24 23:35 METAR KSHD 250335Z AUTO 00000KT 10SM CLR 06/M02 A2998 RMK AO2 T00561019 =
2015-04-24 23:15 METAR KSHD 250315Z AUTO 03003KT 10SM CLR 07/M03 A2998 RMK AO2 T00711033 =
2015-04-24 22:55 METAR KSHD 250255Z AUTO 00000KT 10SM CLR 07/M04 A2998 RMK AO2 T00741038 =
2015-04-24 22:35 METAR KSHD 250235Z AUTO 32006KT 10SM CLR 08/M04 A2998 RMK AO2 T00751043 =
2015-04-24 21:35 METAR KSHD 250135Z AUTO 32004KT 10SM CLR 11/M08 A2998 RMK AO2 T01131078 =
2015-04-24 21:15 METAR KSHD 250115Z AUTO 31006KT 10SM CLR 11/M07 A2997 RMK AO2 T01121069 =
2015-04-24 20:35 METAR KSHD 250035Z AUTO 35005KT 10SM CLR 13/M10 A2996 RMK AO2 T01321097 =
2015-04-24 20:15 METAR KSHD 250015Z AUTO 09004KT 10SM CLR 12/M07 A2996 RMK AO2 T01151071 =
2015-04-24 19:55 METAR KSHD 242355Z AUTO 08003KT 10SM CLR 13/M08 A2995 RMK AO2 T01311080 10174
                 20131 =
2015-04-24 19:35 METAR KSHD 242335Z AUTO 33008KT 10SM CLR 14/M09 A2993 RMK AO2 T01411094 =
2015-04-24 19:15 METAR KSHD 242315Z AUTO 32011KT 10SM CLR 15/M09 A2993 RMK AO2 T01461088 =
2015-04-24 18:55 METAR KSHD 242255Z AUTO 32008KT 10SM CLR 16/M08 A2993 RMK AO2 T01551083 =
2015-04-24 18:35 METAR KSHD 242235Z AUTO 32009KT 10SM CLR 16/M09 A2994 RMK AO2 T01601093 =
2015-04-24 18:15 METAR KSHD 242215Z AUTO 32007KT 10SM CLR 16/M11 A2994 RMK AO2 T01641106 =
2015-04-24 17:55 METAR KSHD 242155Z AUTO 31009G15KT 10SM CLR 17/M10 A2994 RMK AO2 T01671104 =
2015-04-24 17:35 METAR KSHD 242135Z AUTO 31010KT 10SM CLR 17/M10 A2994 RMK AO2 T01701104 =
2015-04-24 17:15 METAR KSHD 242115Z AUTO 32009KT 10SM CLR 17/M10 A2993 RMK AO2 T01711100 =
2015-04-24 16:35 METAR KSHD 242035Z AUTO 31009KT 10SM CLR 17/M11 A2994 RMK AO2 T01711106 =
2015-04-24 16:15 METAR KSHD 242015Z AUTO 30008KT 10SM CLR 17/M11 A2995 RMK AO2 T01681109 =
2015-04-24 15:35 METAR KSHD 241935Z AUTO 33007G15KT 10SM CLR 16/M10 A2996 RMK AO2 T01621102 =
2015-04-24 15:15 METAR KSHD 241915Z AUTO 28006KT 10SM CLR 16/M11 A2996 RMK AO2 T01571107 =
2015-04-24 14:55 METAR KSHD 241855Z AUTO 30010G14KT 10SM CLR 16/M11 A2997 RMK AO2 T01571115 =
2015-04-24 14:35 METAR KSHD 241835Z AUTO 33007KT 10SM CLR 15/M11 A2997 RMK AO2 T01541111 =
2015-04-24 14:15 METAR KSHD 241815Z AUTO 30008KT 10SM CLR 14/M11 A2998 RMK AO2 T01441112 =
2015-04-24 13:55 METAR KSHD 241755Z AUTO 33011KT 10SM CLR 15/M09 A2998 RMK AO2 T01471094 10147
                 20056 =
2015-04-24 13:35 METAR KSHD 241735Z AUTO 33007G16KT 10SM CLR 14/M10 A2999 RMK AO2 T01381096 =
2015-04-24 13:15 METAR KSHD 241715Z AUTO 29009G15KT 10SM CLR 13/M10 A3000 RMK AO2 T01321099 =
2015-04-24 12:55 METAR KSHD 241655Z AUTO 30010G14KT 10SM CLR 13/M08 A3001 RMK AO2 T01341076 =
2015-04-24 12:35 METAR KSHD 241635Z AUTO 33012G16KT 10SM CLR 13/M08 A3002 RMK AO2 T01261079 =
2015-04-24 12:15 METAR KSHD 241615Z AUTO 30009G17KT 10SM CLR 12/M09 A3003 RMK AO2 T01171089 =
2015-04-24 11:55 METAR KSHD 241555Z AUTO 33008KT 10SM CLR 11/M08 A3004 RMK AO2 T01111082 =
2015-04-24 11:35 METAR KSHD 241535Z AUTO 34007G14KT 10SM CLR 11/M07 A3005 RMK AO2 T01051073 =
2015-04-24 11:15 METAR KSHD 241515Z AUTO 32007KT 10SM CLR 10/M08 A3005 RMK AO2 T01001076 =
2015-04-24 10:55 METAR KSHD 241455Z AUTO 32009KT 10SM CLR 10/M07 A3005 RMK AO2 T00981070 =
2015-04-24 10:15 METAR KSHD 241415Z AUTO 31005KT 10SM CLR 08/M07 A3006 RMK AO2 T00841072 =
2015-04-24 09:55 METAR KSHD 241355Z AUTO 32006KT 7SM CLR 08/M07 A3006 RMK AO2 T00801068 =
2015-04-24 09:35 METAR KSHD 241335Z AUTO 35006KT 10SM CLR 08/M07 A3005 RMK AO2 T00751068 =
2015-04-24 09:15 METAR KSHD 241315Z AUTO 32006KT 10SM CLR 07/M07 A3005 RMK AO2 T00711070 =
2015-04-24 08:55 METAR KSHD 241255Z AUTO 34008KT 10SM CLR 07/M07 A3005 RMK AO2 T00681069 =
2015-04-24 08:35 METAR KSHD 241235Z AUTO 34009KT 10SM CLR 06/M07 A3004 RMK AO2 T00621071 =

Support USWX by starting your Amazon purchase here.